METAR Data
IDs: Format: Raw Decoded Include TAF

Data at: 1423 UTC 20 Oct 2021

PAIN 201356Z AUTO 19010KT 10SM SCT047 05/M04 A2922 RMK AO2 SLP915 T00501039